sensor_id;sensor_type;location;lat;lon;timestamp;P1;durP1;ratioP1;P2;durP2;ratioP2
69854;SDS011;57146;48.140;16.304;2023-05-07T00:02:26;1.77;;;0.13;;
69854;SDS011;57146;48.140;16.304;2023-05-07T00:04:54;2.53;;;0.15;;
69854;SDS011;57146;48.140;16.304;2023-05-07T00:07:22;1.70;;;0.10;;
69854;SDS011;57146;48.140;16.304;2023-05-07T00:09:51;3.40;;;0.10;;
69854;SDS011;57146;48.140;16.304;2023-05-07T00:12:18;1.67;;;0.20;;
69854;SDS011;57146;48.140;16.304;2023-05-07T00:14:49;2.47;;;0.30;;
69854;SDS011;57146;48.140;16.304;2023-05-07T00:17:15;2.50;;;0.10;;
69854;SDS011;57146;48.140;16.304;2023-05-07T00:19:43;2.10;;;0.20;;
69854;SDS011;57146;48.140;16.304;2023-05-07T00:22:10;1.75;;;0.10;;
69854;SDS011;57146;48.140;16.304;2023-05-07T00:24:37;2.35;;;0.10;;
69854;SDS011;57146;48.140;16.304;2023-05-07T00:27:05;1.70;;;0.17;;
69854;SDS011;57146;48.140;16.304;2023-05-07T00:29:34;2.10;;;0.10;;
69854;SDS011;57146;48.140;16.304;2023-05-07T00:32:02;1.63;;;0.10;;
69854;SDS011;57146;48.140;16.304;2023-05-07T00:34:29;1.88;;;0.10;;
69854;SDS011;57146;48.140;16.304;2023-05-07T00:36:57;1.90;;;0.10;;
69854;SDS011;57146;48.140;16.304;2023-05-07T00:39:23;2.60;;;0.20;;
69854;SDS011;57146;48.140;16.304;2023-05-07T00:41:52;1.60;;;0.08;;
69854;SDS011;57146;48.140;16.304;2023-05-07T00:44:19;2.10;;;0.10;;
69854;SDS011;57146;48.140;16.304;2023-05-07T00:46:46;2.42;;;0.10;;
69854;SDS011;57146;48.140;16.304;2023-05-07T00:49:13;1.80;;;0.10;;
69854;SDS011;57146;48.140;16.304;2023-05-07T00:51:41;2.63;;;0.47;;
69854;SDS011;57146;48.140;16.304;2023-05-07T00:54:08;2.58;;;0.10;;
69854;SDS011;57146;48.140;16.304;2023-05-07T00:56:39;1.60;;;0.10;;
69854;SDS011;57146;48.140;16.304;2023-05-07T00:59:06;1.38;;;0.10;;
69854;SDS011;57146;48.140;16.304;2023-05-07T01:01:34;1.63;;;0.10;;
69854;SDS011;57146;48.140;16.304;2023-05-07T01:04:02;2.40;;;0.22;;
69854;SDS011;57146;48.140;16.304;2023-05-07T01:06:30;1.80;;;0.10;;
69854;SDS011;57146;48.140;16.304;2023-05-07T01:09:00;2.17;;;0.10;;
69854;SDS011;57146;48.140;16.304;2023-05-07T01:11:28;1.63;;;0.10;;
69854;SDS011;57146;48.140;16.304;2023-05-07T01:13:56;2.20;;;0.13;;
69854;SDS011;57146;48.140;16.304;2023-05-07T01:16:27;2.30;;;0.30;;
69854;SDS011;57146;48.140;16.304;2023-05-07T01:18:55;1.80;;;0.10;;
69854;SDS011;57146;48.140;16.304;2023-05-07T01:21:26;1.87;;;0.10;;
69854;SDS011;57146;48.140;16.304;2023-05-07T01:23:57;1.20;;;0.05;;
69854;SDS011;57146;48.140;16.304;2023-05-07T01:26:27;2.17;;;0.10;;
69854;SDS011;57146;48.140;16.304;2023-05-07T01:28:54;2.35;;;0.10;;
69854;SDS011;57146;48.140;16.304;2023-05-07T01:31:22;1.90;;;0.08;;
69854;SDS011;57146;48.140;16.304;2023-05-07T01:33:52;2.40;;;0.03;;
69854;SDS011;57146;48.140;16.304;2023-05-07T01:36:20;1.80;;;0.10;;
69854;SDS011;57146;48.140;16.304;2023-05-07T01:38:49;1.48;;;0.10;;
69854;SDS011;57146;48.140;16.304;2023-05-07T01:41:16;1.13;;;0.00;;
69854;SDS011;57146;48.140;16.304;2023-05-07T01:43:44;1.70;;;0.00;;
69854;SDS011;57146;48.140;16.304;2023-05-07T01:46:13;1.40;;;0.00;;
69854;SDS011;57146;48.140;16.304;2023-05-07T01:48:41;1.90;;;0.08;;
69854;SDS011;57146;48.140;16.304;2023-05-07T01:51:13;1.67;;;0.08;;
69854;SDS011;57146;48.140;16.304;2023-05-07T01:53:40;1.13;;;0.00;;
69854;SDS011;57146;48.140;16.304;2023-05-07T01:56:07;1.38;;;0.00;;
69854;SDS011;57146;48.140;16.304;2023-05-07T01:58:38;1.27;;;0.10;;
69854;SDS011;57146;48.140;16.304;2023-05-07T02:01:07;1.15;;;0.00;;
69854;SDS011;57146;48.140;16.304;2023-05-07T02:03:34;2.08;;;0.00;;
69854;SDS011;57146;48.140;16.304;2023-05-07T02:06:09;1.52;;;0.05;;
69854;SDS011;57146;48.140;16.304;2023-05-07T02:08:38;1.27;;;0.00;;
69854;SDS011;57146;48.140;16.304;2023-05-07T02:11:10;1.20;;;0.00;;
69854;SDS011;57146;48.140;16.304;2023-05-07T02:13:38;1.33;;;0.00;;
69854;SDS011;57146;48.140;16.304;2023-05-07T02:16:05;1.52;;;0.10;;
69854;SDS011;57146;48.140;16.304;2023-05-07T02:18:32;1.17;;;0.00;;
69854;SDS011;57146;48.140;16.304;2023-05-07T02:20:59;1.50;;;0.10;;
69854;SDS011;57146;48.140;16.304;2023-05-07T02:23:29;1.80;;;0.07;;
69854;SDS011;57146;48.140;16.304;2023-05-07T02:26:01;2.30;;;0.10;;
69854;SDS011;57146;48.140;16.304;2023-05-07T02:28:28;1.70;;;0.10;;
69854;SDS011;57146;48.140;16.304;2023-05-07T02:31:02;1.38;;;0.00;;
69854;SDS011;57146;48.140;16.304;2023-05-07T02:33:30;1.83;;;0.15;;
69854;SDS011;57146;48.140;16.304;2023-05-07T02:36:06;2.03;;;0.10;;
69854;SDS011;57146;48.140;16.304;2023-05-07T02:38:46;2.17;;;0.10;;
69854;SDS011;57146;48.140;16.304;2023-05-07T02:41:41;1.80;;;0.10;;
69854;SDS011;57146;48.140;16.304;2023-05-07T02:44:12;2.85;;;0.10;;
69854;SDS011;57146;48.140;16.304;2023-05-07T02:46:39;1.92;;;0.10;;
69854;SDS011;57146;48.140;16.304;2023-05-07T02:49:11;2.20;;;0.13;;
69854;SDS011;57146;48.140;16.304;2023-05-07T02:51:39;1.90;;;0.08;;
69854;SDS011;57146;48.140;16.304;2023-05-07T02:54:11;2.08;;;0.20;;
69854;SDS011;57146;48.140;16.304;2023-05-07T02:56:38;2.35;;;0.10;;
69854;SDS011;57146;48.140;16.304;2023-05-07T02:59:05;1.70;;;0.10;;
69854;SDS011;57146;48.140;16.304;2023-05-07T03:01:37;2.17;;;0.20;;
69854;SDS011;57146;48.140;16.304;2023-05-07T03:04:06;2.20;;;0.20;;
69854;SDS011;57146;48.140;16.304;2023-05-07T03:06:34;2.28;;;0.40;;
69854;SDS011;57146;48.140;16.304;2023-05-07T03:09:01;2.67;;;0.40;;
69854;SDS011;57146;48.140;16.304;2023-05-07T03:11:29;2.88;;;0.30;;
69854;SDS011;57146;48.140;16.304;2023-05-07T03:13:56;2.73;;;0.43;;
69854;SDS011;57146;48.140;16.304;2023-05-07T03:16:24;2.70;;;0.50;;
69854;SDS011;57146;48.140;16.304;2023-05-07T03:18:51;2.22;;;0.40;;
69854;SDS011;57146;48.140;16.304;2023-05-07T03:21:18;4.65;;;0.50;;
69854;SDS011;57146;48.140;16.304;2023-05-07T03:23:46;5.30;;;0.73;;
69854;SDS011;57146;48.140;16.304;2023-05-07T03:26:13;3.03;;;0.60;;
69854;SDS011;57146;48.140;16.304;2023-05-07T03:28:40;2.58;;;0.45;;
69854;SDS011;57146;48.140;16.304;2023-05-07T03:31:12;3.58;;;0.60;;
69854;SDS011;57146;48.140;16.304;2023-05-07T03:33:49;4.47;;;0.50;;
69854;SDS011;57146;48.140;16.304;2023-05-07T03:36:22;3.03;;;0.70;;
69854;SDS011;57146;48.140;16.304;2023-05-07T03:38:51;3.60;;;0.97;;
69854;SDS011;57146;48.140;16.304;2023-05-07T03:41:22;3.22;;;0.90;;
69854;SDS011;57146;48.140;16.304;2023-05-07T03:43:54;3.42;;;0.85;;
69854;SDS011;57146;48.140;16.304;2023-05-07T03:46:22;4.05;;;1.30;;
69854;SDS011;57146;48.140;16.304;2023-05-07T03:48:49;4.80;;;1.50;;
69854;SDS011;57146;48.140;16.304;2023-05-07T03:51:18;4.77;;;1.27;;
69854;SDS011;57146;48.140;16.304;2023-05-07T03:53:46;3.75;;;0.93;;
69854;SDS011;57146;48.140;16.304;2023-05-07T03:56:13;4.07;;;1.30;;
69854;SDS011;57146;48.140;16.304;2023-05-07T03:58:40;4.78;;;1.30;;
69854;SDS011;57146;48.140;16.304;2023-05-07T04:01:09;5.03;;;1.17;;
69854;SDS011;57146;48.140;16.304;2023-05-07T04:03:37;4.53;;;1.40;;
69854;SDS011;57146;48.140;16.304;2023-05-07T04:06:05;4.60;;;1.65;;
69854;SDS011;57146;48.140;16.304;2023-05-07T04:08:34;4.45;;;1.50;;
69854;SDS011;57146;48.140;16.304;2023-05-07T04:11:02;5.07;;;1.70;;
69854;SDS011;57146;48.140;16.304;2023-05-07T04:13:31;5.25;;;2.10;;
69854;SDS011;57146;48.140;16.304;2023-05-07T04:16:01;5.23;;;1.70;;
69854;SDS011;57146;48.140;16.304;2023-05-07T04:18:30;5.82;;;2.00;;
69854;SDS011;57146;48.140;16.304;2023-05-07T04:20:58;5.80;;;2.00;;
69854;SDS011;57146;48.140;16.304;2023-05-07T04:23:25;6.75;;;2.53;;
69854;SDS011;57146;48.140;16.304;2023-05-07T04:25:52;6.50;;;2.38;;
69854;SDS011;57146;48.140;16.304;2023-05-07T04:28:24;7.20;;;2.80;;
69854;SDS011;57146;48.140;16.304;2023-05-07T04:30:51;8.35;;;2.83;;
69854;SDS011;57146;48.140;16.304;2023-05-07T04:33:20;6.78;;;2.78;;
69854;SDS011;57146;48.140;16.304;2023-05-07T04:35:48;6.95;;;2.72;;
69854;SDS011;57146;48.140;16.304;2023-05-07T04:38:15;6.50;;;2.60;;
69854;SDS011;57146;48.140;16.304;2023-05-07T04:40:43;6.80;;;2.30;;
69854;SDS011;57146;48.140;16.304;2023-05-07T04:43:17;6.10;;;2.70;;
69854;SDS011;57146;48.140;16.304;2023-05-07T04:45:51;6.28;;;2.30;;
69854;SDS011;57146;48.140;16.304;2023-05-07T04:48:22;7.93;;;2.40;;
69854;SDS011;57146;48.140;16.304;2023-05-07T04:50:50;7.57;;;2.47;;
69854;SDS011;57146;48.140;16.304;2023-05-07T04:53:19;7.07;;;2.43;;
69854;SDS011;57146;48.140;16.304;2023-05-07T04:55:47;6.85;;;2.42;;
69854;SDS011;57146;48.140;16.304;2023-05-07T04:58:15;6.90;;;2.50;;
69854;SDS011;57146;48.140;16.304;2023-05-07T05:00:46;7.53;;;2.80;;
69854;SDS011;57146;48.140;16.304;2023-05-07T05:03:13;8.43;;;3.40;;
69854;SDS011;57146;48.140;16.304;2023-05-07T05:05:41;8.97;;;3.77;;
69854;SDS011;57146;48.140;16.304;2023-05-07T05:08:08;9.23;;;3.50;;
69854;SDS011;57146;48.140;16.304;2023-05-07T05:10:37;9.43;;;3.97;;
69854;SDS011;57146;48.140;16.304;2023-05-07T05:13:05;9.52;;;4.00;;
69854;SDS011;57146;48.140;16.304;2023-05-07T05:15:35;10.90;;;4.50;;
69854;SDS011;57146;48.140;16.304;2023-05-07T05:18:02;9.43;;;4.03;;
69854;SDS011;57146;48.140;16.304;2023-05-07T05:20:29;11.60;;;4.53;;
69854;SDS011;57146;48.140;16.304;2023-05-07T05:22:57;11.10;;;4.70;;
69854;SDS011;57146;48.140;16.304;2023-05-07T05:25:25;11.40;;;4.97;;
69854;SDS011;57146;48.140;16.304;2023-05-07T05:27:52;14.68;;;5.25;;
69854;SDS011;57146;48.140;16.304;2023-05-07T05:30:20;12.30;;;5.37;;
69854;SDS011;57146;48.140;16.304;2023-05-07T05:32:48;13.55;;;5.90;;
69854;SDS011;57146;48.140;16.304;2023-05-07T05:35:17;13.85;;;5.93;;
69854;SDS011;57146;48.140;16.304;2023-05-07T05:37:44;13.18;;;6.05;;
69854;SDS011;57146;48.140;16.304;2023-05-07T05:40:11;14.50;;;6.82;;
69854;SDS011;57146;48.140;16.304;2023-05-07T05:42:40;17.03;;;6.83;;
69854;SDS011;57146;48.140;16.304;2023-05-07T05:45:09;15.13;;;6.68;;
69854;SDS011;57146;48.140;16.304;2023-05-07T05:47:37;14.75;;;6.90;;
69854;SDS011;57146;48.140;16.304;2023-05-07T05:50:07;15.02;;;7.07;;
69854;SDS011;57146;48.140;16.304;2023-05-07T05:52:35;13.98;;;6.55;;
69854;SDS011;57146;48.140;16.304;2023-05-07T05:55:02;14.07;;;6.70;;
69854;SDS011;57146;48.140;16.304;2023-05-07T05:57:29;16.35;;;7.30;;
69854;SDS011;57146;48.140;16.304;2023-05-07T05:59:57;15.68;;;6.93;;
69854;SDS011;57146;48.140;16.304;2023-05-07T06:02:24;16.88;;;7.60;;
69854;SDS011;57146;48.140;16.304;2023-05-07T06:04:52;15.98;;;7.45;;
69854;SDS011;57146;48.140;16.304;2023-05-07T06:07:21;16.53;;;7.50;;
69854;SDS011;57146;48.140;16.304;2023-05-07T06:09:49;16.30;;;7.72;;
69854;SDS011;57146;48.140;16.304;2023-05-07T06:12:40;17.90;;;7.93;;
69854;SDS011;57146;48.140;16.304;2023-05-07T06:15:32;17.48;;;7.82;;
69854;SDS011;57146;48.140;16.304;2023-05-07T06:18:04;15.45;;;7.03;;
69854;SDS011;57146;48.140;16.304;2023-05-07T06:20:35;17.23;;;8.13;;
69854;SDS011;57146;48.140;16.304;2023-05-07T06:23:06;17.67;;;7.93;;
69854;SDS011;57146;48.140;16.304;2023-05-07T06:25:57;17.13;;;8.20;;
69854;SDS011;57146;48.140;16.304;2023-05-07T06:28:31;21.00;;;9.05;;
69854;SDS011;57146;48.140;16.304;2023-05-07T06:31:14;17.60;;;8.43;;
69854;SDS011;57146;48.140;16.304;2023-05-07T06:33:50;17.57;;;7.97;;
69854;SDS011;57146;48.140;16.304;2023-05-07T06:36:18;19.35;;;8.10;;
69854;SDS011;57146;48.140;16.304;2023-05-07T06:38:53;19.20;;;8.63;;
69854;SDS011;57146;48.140;16.304;2023-05-07T06:41:21;19.13;;;8.13;;
69854;SDS011;57146;48.140;16.304;2023-05-07T06:43:48;17.98;;;8.40;;
69854;SDS011;57146;48.140;16.304;2023-05-07T06:46:29;17.93;;;8.27;;
69854;SDS011;57146;48.140;16.304;2023-05-07T06:48:56;16.55;;;7.78;;
69854;SDS011;57146;48.140;16.304;2023-05-07T06:51:25;17.75;;;8.00;;
69854;SDS011;57146;48.140;16.304;2023-05-07T06:53:54;18.17;;;8.35;;
69854;SDS011;57146;48.140;16.304;2023-05-07T06:56:21;17.77;;;8.45;;
69854;SDS011;57146;48.140;16.304;2023-05-07T06:58:51;19.53;;;8.63;;
69854;SDS011;57146;48.140;16.304;2023-05-07T07:01:19;19.85;;;8.93;;
69854;SDS011;57146;48.140;16.304;2023-05-07T07:03:49;19.50;;;8.48;;
69854;SDS011;57146;48.140;16.304;2023-05-07T07:06:18;17.90;;;8.13;;
69854;SDS011;57146;48.140;16.304;2023-05-07T07:09:10;17.92;;;8.30;;
69854;SDS011;57146;48.140;16.304;2023-05-07T07:11:37;19.40;;;8.40;;
69854;SDS011;57146;48.140;16.304;2023-05-07T07:14:05;15.82;;;8.07;;
69854;SDS011;57146;48.140;16.304;2023-05-07T07:16:43;19.25;;;8.57;;
69854;SDS011;57146;48.140;16.304;2023-05-07T07:19:11;18.13;;;8.73;;
69854;SDS011;57146;48.140;16.304;2023-05-07T07:21:41;18.45;;;8.07;;
69854;SDS011;57146;48.140;16.304;2023-05-07T07:24:12;18.10;;;8.47;;
69854;SDS011;57146;48.140;16.304;2023-05-07T07:26:42;17.02;;;7.53;;
69854;SDS011;57146;48.140;16.304;2023-05-07T07:29:09;19.05;;;8.32;;
69854;SDS011;57146;48.140;16.304;2023-05-07T07:31:36;17.48;;;8.15;;
69854;SDS011;57146;48.140;16.304;2023-05-07T07:34:03;18.95;;;8.00;;
69854;SDS011;57146;48.140;16.304;2023-05-07T07:36:54;18.97;;;7.90;;
69854;SDS011;57146;48.140;16.304;2023-05-07T07:39:24;17.55;;;8.32;;
69854;SDS011;57146;48.140;16.304;2023-05-07T07:41:54;15.32;;;7.40;;
69854;SDS011;57146;48.140;16.304;2023-05-07T07:44:27;17.80;;;7.82;;
69854;SDS011;57146;48.140;16.304;2023-05-07T07:46:59;17.42;;;8.23;;
69854;SDS011;57146;48.140;16.304;2023-05-07T07:49:27;16.53;;;7.67;;
69854;SDS011;57146;48.140;16.304;2023-05-07T07:51:56;16.33;;;7.15;;
69854;SDS011;57146;48.140;16.304;2023-05-07T07:54:24;17.67;;;7.85;;
69854;SDS011;57146;48.140;16.304;2023-05-07T07:56:51;15.00;;;7.45;;
69854;SDS011;57146;48.140;16.304;2023-05-07T07:59:18;15.07;;;7.47;;
69854;SDS011;57146;48.140;16.304;2023-05-07T08:01:48;16.30;;;7.83;;
69854;SDS011;57146;48.140;16.304;2023-05-07T08:04:16;16.15;;;7.57;;
69854;SDS011;57146;48.140;16.304;2023-05-07T08:06:44;18.75;;;8.10;;
69854;SDS011;57146;48.140;16.304;2023-05-07T08:09:11;16.38;;;7.60;;
69854;SDS011;57146;48.140;16.304;2023-05-07T08:11:40;15.63;;;7.20;;
69854;SDS011;57146;48.140;16.304;2023-05-07T08:14:08;14.77;;;6.80;;
69854;SDS011;57146;48.140;16.304;2023-05-07T08:16:35;15.45;;;6.97;;
69854;SDS011;57146;48.140;16.304;2023-05-07T08:19:06;15.10;;;6.93;;
69854;SDS011;57146;48.140;16.304;2023-05-07T08:21:34;13.20;;;6.30;;
69854;SDS011;57146;48.140;16.304;2023-05-07T08:24:01;14.75;;;6.63;;
69854;SDS011;57146;48.140;16.304;2023-05-07T08:26:29;13.30;;;6.37;;
69854;SDS011;57146;48.140;16.304;2023-05-07T08:28:56;14.50;;;6.68;;
69854;SDS011;57146;48.140;16.304;2023-05-07T08:31:47;14.50;;;6.93;;
69854;SDS011;57146;48.140;16.304;2023-05-07T08:34:14;13.05;;;6.28;;
69854;SDS011;57146;48.140;16.304;2023-05-07T08:36:44;18.50;;;6.60;;
69854;SDS011;57146;48.140;16.304;2023-05-07T08:39:17;12.10;;;5.43;;
69854;SDS011;57146;48.140;16.304;2023-05-07T08:41:48;14.32;;;6.63;;
69854;SDS011;57146;48.140;16.304;2023-05-07T08:44:26;14.82;;;6.95;;
69854;SDS011;57146;48.140;16.304;2023-05-07T08:47:19;14.43;;;6.63;;
69854;SDS011;57146;48.140;16.304;2023-05-07T08:49:50;12.82;;;6.28;;
69854;SDS011;57146;48.140;16.304;2023-05-07T08:52:18;12.97;;;5.93;;
69854;SDS011;57146;48.140;16.304;2023-05-07T08:54:45;12.65;;;6.30;;
69854;SDS011;57146;48.140;16.304;2023-05-07T08:57:39;13.63;;;6.10;;
69854;SDS011;57146;48.140;16.304;2023-05-07T09:00:08;13.73;;;6.43;;
69854;SDS011;57146;48.140;16.304;2023-05-07T09:02:39;12.75;;;5.60;;
69854;SDS011;57146;48.140;16.304;2023-05-07T09:05:07;12.77;;;5.47;;
69854;SDS011;57146;48.140;16.304;2023-05-07T09:07:37;13.05;;;6.50;;
69854;SDS011;57146;48.140;16.304;2023-05-07T09:10:06;12.95;;;5.68;;
69854;SDS011;57146;48.140;16.304;2023-05-07T09:12:37;11.60;;;5.78;;
69854;SDS011;57146;48.140;16.304;2023-05-07T09:15:05;11.63;;;5.57;;
69854;SDS011;57146;48.140;16.304;2023-05-07T09:17:35;12.80;;;5.73;;
69854;SDS011;57146;48.140;16.304;2023-05-07T09:20:03;11.38;;;5.05;;
69854;SDS011;57146;48.140;16.304;2023-05-07T09:22:38;12.40;;;5.50;;
69854;SDS011;57146;48.140;16.304;2023-05-07T09:25:10;12.32;;;5.25;;
69854;SDS011;57146;48.140;16.304;2023-05-07T09:27:39;11.38;;;5.13;;
69854;SDS011;57146;48.140;16.304;2023-05-07T09:30:06;9.63;;;4.50;;
69854;SDS011;57146;48.140;16.304;2023-05-07T09:32:35;12.98;;;5.10;;
69854;SDS011;57146;48.140;16.304;2023-05-07T09:35:27;11.65;;;5.40;;
69854;SDS011;57146;48.140;16.304;2023-05-07T09:38:00;10.25;;;5.30;;
69854;SDS011;57146;48.140;16.304;2023-05-07T09:40:34;14.23;;;5.70;;
69854;SDS011;57146;48.140;16.304;2023-05-07T09:43:10;13.47;;;5.80;;
69854;SDS011;57146;48.140;16.304;2023-05-07T09:45:50;11.80;;;5.05;;
69854;SDS011;57146;48.140;16.304;2023-05-07T09:48:22;11.18;;;4.97;;
69854;SDS011;57146;48.140;16.304;2023-05-07T09:50:53;12.02;;;5.63;;
69854;SDS011;57146;48.140;16.304;2023-05-07T09:53:47;12.95;;;5.68;;
69854;SDS011;57146;48.140;16.304;2023-05-07T09:56:15;10.67;;;5.07;;
69854;SDS011;57146;48.140;16.304;2023-05-07T09:58:44;12.30;;;5.38;;
69854;SDS011;57146;48.140;16.304;2023-05-07T10:01:14;11.15;;;5.20;;
69854;SDS011;57146;48.140;16.304;2023-05-07T10:03:44;11.90;;;5.20;;
69854;SDS011;57146;48.140;16.304;2023-05-07T10:06:13;10.82;;;5.05;;
69854;SDS011;57146;48.140;16.304;2023-05-07T10:08:43;11.40;;;4.90;;
69854;SDS011;57146;48.140;16.304;2023-05-07T10:11:11;11.18;;;5.28;;
69854;SDS011;57146;48.140;16.304;2023-05-07T10:13:39;10.65;;;5.03;;
69854;SDS011;57146;48.140;16.304;2023-05-07T10:16:08;9.68;;;4.15;;
69854;SDS011;57146;48.140;16.304;2023-05-07T10:18:43;8.45;;;4.20;;
69854;SDS011;57146;48.140;16.304;2023-05-07T10:21:18;8.83;;;4.30;;
69854;SDS011;57146;48.140;16.304;2023-05-07T10:24:20;9.40;;;4.55;;
69854;SDS011;57146;48.140;16.304;2023-05-07T10:26:52;10.48;;;4.78;;
69854;SDS011;57146;48.140;16.304;2023-05-07T10:29:39;12.27;;;5.28;;
69854;SDS011;57146;48.140;16.304;2023-05-07T10:35:04;9.70;;;4.37;;
69854;SDS011;57146;48.140;16.304;2023-05-07T10:37:38;9.70;;;4.30;;
69854;SDS011;57146;48.140;16.304;2023-05-07T10:40:08;10.13;;;4.13;;
69854;SDS011;57146;48.140;16.304;2023-05-07T10:42:36;8.50;;;3.92;;
69854;SDS011;57146;48.140;16.304;2023-05-07T10:45:15;12.32;;;4.80;;
69854;SDS011;57146;48.140;16.304;2023-05-07T10:51:18;8.63;;;4.13;;
69854;SDS011;57146;48.140;16.304;2023-05-07T10:56:42;9.60;;;4.03;;
69854;SDS011;57146;48.140;16.304;2023-05-07T10:59:38;9.88;;;3.90;;
69854;SDS011;57146;48.140;16.304;2023-05-07T11:02:13;9.63;;;4.53;;
69854;SDS011;57146;48.140;16.304;2023-05-07T11:05:18;7.97;;;3.28;;
69854;SDS011;57146;48.140;16.304;2023-05-07T11:08:14;8.75;;;4.10;;
69854;SDS011;57146;48.140;16.304;2023-05-07T11:11:01;8.35;;;3.88;;
69854;SDS011;57146;48.140;16.304;2023-05-07T11:17:30;9.00;;;3.63;;
69854;SDS011;57146;48.140;16.304;2023-05-07T11:20:05;9.95;;;3.92;;
69854;SDS011;57146;48.140;16.304;2023-05-07T11:22:47;8.60;;;3.60;;
69854;SDS011;57146;48.140;16.304;2023-05-07T11:25:18;9.68;;;4.05;;
69854;SDS011;57146;48.140;16.304;2023-05-07T11:27:50;9.45;;;4.43;;
69854;SDS011;57146;48.140;16.304;2023-05-07T11:30:19;9.73;;;4.03;;
69854;SDS011;57146;48.140;16.304;2023-05-07T11:32:47;8.43;;;4.03;;
69854;SDS011;57146;48.140;16.304;2023-05-07T11:35:39;8.48;;;4.10;;
69854;SDS011;57146;48.140;16.304;2023-05-07T11:38:12;8.75;;;4.10;;
69854;SDS011;57146;48.140;16.304;2023-05-07T11:40:50;7.63;;;3.63;;
69854;SDS011;57146;48.140;16.304;2023-05-07T11:43:21;9.67;;;4.27;;
69854;SDS011;57146;48.140;16.304;2023-05-07T11:45:48;8.25;;;3.28;;
69854;SDS011;57146;48.140;16.304;2023-05-07T11:48:16;8.70;;;4.10;;
69854;SDS011;57146;48.140;16.304;2023-05-07T11:50:54;8.63;;;3.60;;
69854;SDS011;57146;48.140;16.304;2023-05-07T11:53:38;7.97;;;3.17;;
69854;SDS011;57146;48.140;16.304;2023-05-07T11:56:11;7.93;;;3.90;;
69854;SDS011;57146;48.140;16.304;2023-05-07T11:58:42;7.53;;;3.47;;
69854;SDS011;57146;48.140;16.304;2023-05-07T12:01:11;9.27;;;3.50;;
69854;SDS011;57146;48.140;16.304;2023-05-07T12:03:42;7.10;;;3.50;;
69854;SDS011;57146;48.140;16.304;2023-05-07T12:06:11;8.10;;;3.30;;
69854;SDS011;57146;48.140;16.304;2023-05-07T12:08:40;7.10;;;3.40;;
69854;SDS011;57146;48.140;16.304;2023-05-07T12:11:13;9.23;;;3.90;;
69854;SDS011;57146;48.140;16.304;2023-05-07T12:13:49;7.35;;;3.33;;
69854;SDS011;57146;48.140;16.304;2023-05-07T12:16:16;7.95;;;3.20;;
69854;SDS011;57146;48.140;16.304;2023-05-07T12:18:44;8.48;;;3.40;;
69854;SDS011;57146;48.140;16.304;2023-05-07T12:21:36;7.60;;;3.23;;
69854;SDS011;57146;48.140;16.304;2023-05-07T12:24:05;7.43;;;3.03;;
69854;SDS011;57146;48.140;16.304;2023-05-07T12:26:33;6.70;;;2.75;;
69854;SDS011;57146;48.140;16.304;2023-05-07T12:29:06;7.18;;;3.10;;
69854;SDS011;57146;48.140;16.304;2023-05-07T12:31:33;6.65;;;3.00;;
69854;SDS011;57146;48.140;16.304;2023-05-07T12:34:00;6.07;;;2.70;;
69854;SDS011;57146;48.140;16.304;2023-05-07T12:36:36;7.40;;;3.45;;
69854;SDS011;57146;48.140;16.304;2023-05-07T12:39:08;7.05;;;2.78;;
69854;SDS011;57146;48.140;16.304;2023-05-07T12:41:36;6.72;;;2.83;;
69854;SDS011;57146;48.140;16.304;2023-05-07T12:44:23;7.75;;;2.75;;
69854;SDS011;57146;48.140;16.304;2023-05-07T12:46:51;6.90;;;2.93;;
69854;SDS011;57146;48.140;16.304;2023-05-07T12:49:18;8.88;;;2.80;;
69854;SDS011;57146;48.140;16.304;2023-05-07T12:51:49;7.93;;;3.00;;
69854;SDS011;57146;48.140;16.304;2023-05-07T12:54:29;9.40;;;3.33;;
69854;SDS011;57146;48.140;16.304;2023-05-07T12:57:01;6.20;;;2.80;;
69854;SDS011;57146;48.140;16.304;2023-05-07T12:59:41;6.20;;;2.53;;
69854;SDS011;57146;48.140;16.304;2023-05-07T13:02:10;6.72;;;2.67;;
69854;SDS011;57146;48.140;16.304;2023-05-07T13:05:01;8.80;;;2.75;;
69854;SDS011;57146;48.140;16.304;2023-05-07T13:07:30;6.78;;;2.90;;
69854;SDS011;57146;48.140;16.304;2023-05-07T13:10:00;7.32;;;2.90;;
69854;SDS011;57146;48.140;16.304;2023-05-07T13:12:26;7.57;;;2.97;;
69854;SDS011;57146;48.140;16.304;2023-05-07T13:15:18;5.63;;;2.60;;
69854;SDS011;57146;48.140;16.304;2023-05-07T13:17:46;6.45;;;2.65;;
69854;SDS011;57146;48.140;16.304;2023-05-07T13:20:13;7.80;;;3.67;;
69854;SDS011;57146;48.140;16.304;2023-05-07T13:23:04;7.50;;;3.15;;
69854;SDS011;57146;48.140;16.304;2023-05-07T13:25:32;6.13;;;2.63;;
69854;SDS011;57146;48.140;16.304;2023-05-07T13:27:59;6.88;;;2.97;;
69854;SDS011;57146;48.140;16.304;2023-05-07T13:30:37;7.03;;;2.55;;
69854;SDS011;57146;48.140;16.304;2023-05-07T13:33:04;6.95;;;2.55;;
69854;SDS011;57146;48.140;16.304;2023-05-07T13:35:31;6.70;;;2.35;;
69854;SDS011;57146;48.140;16.304;2023-05-07T13:37:57;6.23;;;2.10;;
69854;SDS011;57146;48.140;16.304;2023-05-07T13:40:25;5.43;;;2.28;;
69854;SDS011;57146;48.140;16.304;2023-05-07T13:42:52;6.82;;;2.60;;
69854;SDS011;57146;48.140;16.304;2023-05-07T13:45:20;5.47;;;2.35;;
69854;SDS011;57146;48.140;16.304;2023-05-07T13:47:48;5.20;;;2.10;;
69854;SDS011;57146;48.140;16.304;2023-05-07T13:50:15;5.83;;;1.73;;
69854;SDS011;57146;48.140;16.304;2023-05-07T13:52:44;5.65;;;2.28;;
69854;SDS011;57146;48.140;16.304;2023-05-07T13:55:17;4.90;;;2.10;;
69854;SDS011;57146;48.140;16.304;2023-05-07T13:57:54;6.72;;;2.78;;
69854;SDS011;57146;48.140;16.304;2023-05-07T14:00:27;5.45;;;2.50;;
69854;SDS011;57146;48.140;16.304;2023-05-07T14:02:55;5.20;;;2.00;;
69854;SDS011;57146;48.140;16.304;2023-05-07T14:05:23;4.95;;;1.88;;
69854;SDS011;57146;48.140;16.304;2023-05-07T14:07:50;4.95;;;1.90;;
69854;SDS011;57146;48.140;16.304;2023-05-07T14:10:19;6.10;;;2.00;;
69854;SDS011;57146;48.140;16.304;2023-05-07T14:12:46;5.32;;;2.17;;
69854;SDS011;57146;48.140;16.304;2023-05-07T14:15:14;5.03;;;1.90;;
69854;SDS011;57146;48.140;16.304;2023-05-07T14:17:41;6.13;;;2.30;;
69854;SDS011;57146;48.140;16.304;2023-05-07T14:20:10;4.45;;;1.73;;
69854;SDS011;57146;48.140;16.304;2023-05-07T14:22:41;4.65;;;1.73;;
69854;SDS011;57146;48.140;16.304;2023-05-07T14:25:08;6.00;;;1.75;;
69854;SDS011;57146;48.140;16.304;2023-05-07T14:27:36;5.37;;;1.67;;
69854;SDS011;57146;48.140;16.304;2023-05-07T14:30:03;5.22;;;1.85;;
69854;SDS011;57146;48.140;16.304;2023-05-07T14:32:35;4.20;;;1.90;;
69854;SDS011;57146;48.140;16.304;2023-05-07T14:35:05;4.53;;;1.60;;
69854;SDS011;57146;48.140;16.304;2023-05-07T14:37:33;4.55;;;1.73;;
69854;SDS011;57146;48.140;16.304;2023-05-07T14:40:00;5.07;;;1.50;;
69854;SDS011;57146;48.140;16.304;2023-05-07T14:42:27;5.05;;;1.83;;
69854;SDS011;57146;48.140;16.304;2023-05-07T14:44:55;4.55;;;1.23;;
69854;SDS011;57146;48.140;16.304;2023-05-07T14:47:51;4.45;;;1.50;;
69854;SDS011;57146;48.140;16.304;2023-05-07T14:50:20;4.43;;;1.50;;
69854;SDS011;57146;48.140;16.304;2023-05-07T14:52:54;4.27;;;1.43;;
69854;SDS011;57146;48.140;16.304;2023-05-07T14:55:21;5.72;;;1.35;;
69854;SDS011;57146;48.140;16.304;2023-05-07T14:57:50;3.85;;;1.40;;
69854;SDS011;57146;48.140;16.304;2023-05-07T15:00:17;4.47;;;1.58;;
69854;SDS011;57146;48.140;16.304;2023-05-07T15:02:45;4.05;;;1.45;;
69854;SDS011;57146;48.140;16.304;2023-05-07T15:05:13;3.80;;;1.33;;
69854;SDS011;57146;48.140;16.304;2023-05-07T15:07:41;4.35;;;1.50;;